sensor_id;sensor_type;location;lat;lon;timestamp;P1;durP1;ratioP1;P2;durP2;ratioP2
16115;SDS011;8162;47.104;15.432;2023-01-30T00:00:22;16.83;;;12.47;;
16115;SDS011;8162;47.104;15.432;2023-01-30T00:03:23;19.37;;;12.27;;
16115;SDS011;8162;47.104;15.432;2023-01-30T00:06:24;19.50;;;12.70;;
16115;SDS011;8162;47.104;15.432;2023-01-30T00:09:25;19.73;;;12.87;;
16115;SDS011;8162;47.104;15.432;2023-01-30T00:12:26;16.40;;;11.67;;
16115;SDS011;8162;47.104;15.432;2023-01-30T00:15:26;19.60;;;12.93;;
16115;SDS011;8162;47.104;15.432;2023-01-30T00:18:27;18.90;;;13.13;;
16115;SDS011;8162;47.104;15.432;2023-01-30T00:21:28;19.30;;;11.90;;
16115;SDS011;8162;47.104;15.432;2023-01-30T00:24:29;18.90;;;13.17;;
16115;SDS011;8162;47.104;15.432;2023-01-30T00:27:29;19.00;;;12.40;;
16115;SDS011;8162;47.104;15.432;2023-01-30T00:30:30;18.20;;;12.13;;
16115;SDS011;8162;47.104;15.432;2023-01-30T00:33:31;18.43;;;12.23;;
16115;SDS011;8162;47.104;15.432;2023-01-30T00:36:31;19.73;;;13.23;;
16115;SDS011;8162;47.104;15.432;2023-01-30T00:39:32;18.57;;;12.30;;
16115;SDS011;8162;47.104;15.432;2023-01-30T00:42:33;18.80;;;12.67;;
16115;SDS011;8162;47.104;15.432;2023-01-30T00:45:52;17.03;;;11.90;;
16115;SDS011;8162;47.104;15.432;2023-01-30T00:49:12;18.20;;;12.87;;
16115;SDS011;8162;47.104;15.432;2023-01-30T00:52:13;18.80;;;12.60;;
16115;SDS011;8162;47.104;15.432;2023-01-30T00:55:14;18.47;;;12.77;;
16115;SDS011;8162;47.104;15.432;2023-01-30T00:58:14;19.57;;;12.93;;
16115;SDS011;8162;47.104;15.432;2023-01-30T01:01:15;15.93;;;10.97;;
16115;SDS011;8162;47.104;15.432;2023-01-30T01:04:16;18.60;;;13.13;;
16115;SDS011;8162;47.104;15.432;2023-01-30T01:07:16;18.40;;;13.00;;
16115;SDS011;8162;47.104;15.432;2023-01-30T01:10:17;19.40;;;12.27;;
16115;SDS011;8162;47.104;15.432;2023-01-30T01:13:18;18.37;;;12.13;;
16115;SDS011;8162;47.104;15.432;2023-01-30T01:16:18;18.17;;;12.40;;
16115;SDS011;8162;47.104;15.432;2023-01-30T01:19:19;17.73;;;12.00;;
16115;SDS011;8162;47.104;15.432;2023-01-30T01:22:20;17.77;;;12.73;;
16115;SDS011;8162;47.104;15.432;2023-01-30T01:25:21;18.60;;;12.20;;
16115;SDS011;8162;47.104;15.432;2023-01-30T01:28:23;19.67;;;12.87;;
16115;SDS011;8162;47.104;15.432;2023-01-30T01:31:24;18.57;;;12.93;;
16115;SDS011;8162;47.104;15.432;2023-01-30T01:34:25;17.13;;;12.30;;
16115;SDS011;8162;47.104;15.432;2023-01-30T01:37:26;17.97;;;12.77;;
16115;SDS011;8162;47.104;15.432;2023-01-30T01:40:26;20.00;;;12.93;;
16115;SDS011;8162;47.104;15.432;2023-01-30T01:47:06;20.73;;;13.27;;
16115;SDS011;8162;47.104;15.432;2023-01-30T01:50:11;16.97;;;12.20;;
16115;SDS011;8162;47.104;15.432;2023-01-30T01:53:18;19.30;;;12.50;;
16115;SDS011;8162;47.104;15.432;2023-01-30T01:56:22;18.93;;;12.47;;
16115;SDS011;8162;47.104;15.432;2023-01-30T01:59:31;19.57;;;12.73;;
16115;SDS011;8162;47.104;15.432;2023-01-30T02:02:37;17.00;;;11.87;;
16115;SDS011;8162;47.104;15.432;2023-01-30T02:05:43;18.27;;;12.33;;
16115;SDS011;8162;47.104;15.432;2023-01-30T02:08:52;16.67;;;11.80;;
16115;SDS011;8162;47.104;15.432;2023-01-30T02:11:56;18.53;;;12.83;;
16115;SDS011;8162;47.104;15.432;2023-01-30T02:15:00;17.07;;;11.80;;
16115;SDS011;8162;47.104;15.432;2023-01-30T02:18:03;17.47;;;12.00;;
16115;SDS011;8162;47.104;15.432;2023-01-30T02:28:08;16.70;;;12.00;;
16115;SDS011;8162;47.104;15.432;2023-01-30T02:31:27;16.73;;;12.07;;
16115;SDS011;8162;47.104;15.432;2023-01-30T02:34:37;16.00;;;10.97;;
16115;SDS011;8162;47.104;15.432;2023-01-30T02:45:01;20.30;;;11.83;;
16115;SDS011;8162;47.104;15.432;2023-01-30T02:48:15;17.47;;;11.33;;
16115;SDS011;8162;47.104;15.432;2023-01-30T02:51:23;16.50;;;11.00;;
16115;SDS011;8162;47.104;15.432;2023-01-30T02:54:28;17.07;;;11.67;;
16115;SDS011;8162;47.104;15.432;2023-01-30T02:57:28;18.50;;;12.07;;
16115;SDS011;8162;47.104;15.432;2023-01-30T03:03:51;17.73;;;12.03;;
16115;SDS011;8162;47.104;15.432;2023-01-30T03:10:39;16.33;;;10.63;;
16115;SDS011;8162;47.104;15.432;2023-01-30T03:14:20;15.00;;;10.73;;
16115;SDS011;8162;47.104;15.432;2023-01-30T03:17:29;15.90;;;10.53;;
16115;SDS011;8162;47.104;15.432;2023-01-30T03:20:35;14.97;;;10.23;;
16115;SDS011;8162;47.104;15.432;2023-01-30T03:23:37;13.77;;;9.87;;
16115;SDS011;8162;47.104;15.432;2023-01-30T03:26:48;17.00;;;10.30;;
16115;SDS011;8162;47.104;15.432;2023-01-30T03:29:54;17.57;;;11.17;;
16115;SDS011;8162;47.104;15.432;2023-01-30T03:32:54;15.47;;;10.37;;
16115;SDS011;8162;47.104;15.432;2023-01-30T03:35:55;21.27;;;11.63;;
16115;SDS011;8162;47.104;15.432;2023-01-30T03:38:56;15.83;;;9.93;;
16115;SDS011;8162;47.104;15.432;2023-01-30T03:41:56;15.23;;;10.83;;
16115;SDS011;8162;47.104;15.432;2023-01-30T03:44:57;13.10;;;10.40;;
16115;SDS011;8162;47.104;15.432;2023-01-30T03:47:58;14.90;;;10.57;;
16115;SDS011;8162;47.104;15.432;2023-01-30T03:50:59;13.67;;;10.17;;
16115;SDS011;8162;47.104;15.432;2023-01-30T03:53:59;17.33;;;11.13;;
16115;SDS011;8162;47.104;15.432;2023-01-30T03:57:00;12.93;;;9.13;;
16115;SDS011;8162;47.104;15.432;2023-01-30T04:00:01;11.70;;;8.70;;
16115;SDS011;8162;47.104;15.432;2023-01-30T04:03:03;13.73;;;9.10;;
16115;SDS011;8162;47.104;15.432;2023-01-30T04:06:04;16.00;;;10.23;;
16115;SDS011;8162;47.104;15.432;2023-01-30T04:09:05;14.27;;;9.27;;
16115;SDS011;8162;47.104;15.432;2023-01-30T04:12:05;13.33;;;9.30;;
16115;SDS011;8162;47.104;15.432;2023-01-30T04:15:06;15.70;;;9.67;;
16115;SDS011;8162;47.104;15.432;2023-01-30T04:18:08;11.90;;;9.43;;
16115;SDS011;8162;47.104;15.432;2023-01-30T04:21:08;15.77;;;9.27;;
16115;SDS011;8162;47.104;15.432;2023-01-30T04:24:09;13.73;;;9.73;;
16115;SDS011;8162;47.104;15.432;2023-01-30T04:27:10;15.27;;;10.50;;
16115;SDS011;8162;47.104;15.432;2023-01-30T04:30:11;11.30;;;8.37;;
16115;SDS011;8162;47.104;15.432;2023-01-30T04:33:11;15.23;;;9.53;;
16115;SDS011;8162;47.104;15.432;2023-01-30T04:36:12;10.90;;;7.00;;
16115;SDS011;8162;47.104;15.432;2023-01-30T04:39:13;11.60;;;8.13;;
16115;SDS011;8162;47.104;15.432;2023-01-30T04:42:14;12.27;;;8.17;;
16115;SDS011;8162;47.104;15.432;2023-01-30T04:45:14;13.67;;;9.23;;
16115;SDS011;8162;47.104;15.432;2023-01-30T04:48:15;11.70;;;8.43;;
16115;SDS011;8162;47.104;15.432;2023-01-30T04:51:17;13.50;;;8.97;;
16115;SDS011;8162;47.104;15.432;2023-01-30T04:54:18;14.97;;;9.63;;
16115;SDS011;8162;47.104;15.432;2023-01-30T04:57:19;14.17;;;9.80;;
16115;SDS011;8162;47.104;15.432;2023-01-30T05:00:19;16.00;;;9.83;;
16115;SDS011;8162;47.104;15.432;2023-01-30T05:03:20;11.70;;;8.77;;
16115;SDS011;8162;47.104;15.432;2023-01-30T05:06:21;15.47;;;10.23;;
16115;SDS011;8162;47.104;15.432;2023-01-30T05:09:22;14.63;;;10.00;;
16115;SDS011;8162;47.104;15.432;2023-01-30T05:12:23;13.47;;;9.30;;
16115;SDS011;8162;47.104;15.432;2023-01-30T05:15:23;12.73;;;8.70;;
16115;SDS011;8162;47.104;15.432;2023-01-30T05:18:24;13.13;;;8.93;;
16115;SDS011;8162;47.104;15.432;2023-01-30T05:21:25;11.20;;;8.33;;
16115;SDS011;8162;47.104;15.432;2023-01-30T05:24:29;15.27;;;9.30;;
16115;SDS011;8162;47.104;15.432;2023-01-30T05:27:30;11.13;;;8.17;;
16115;SDS011;8162;47.104;15.432;2023-01-30T05:30:30;14.63;;;8.57;;
16115;SDS011;8162;47.104;15.432;2023-01-30T05:33:31;13.80;;;8.90;;
16115;SDS011;8162;47.104;15.432;2023-01-30T05:36:32;15.20;;;9.67;;
16115;SDS011;8162;47.104;15.432;2023-01-30T05:39:32;18.03;;;11.13;;
16115;SDS011;8162;47.104;15.432;2023-01-30T05:42:33;16.57;;;11.57;;
16115;SDS011;8162;47.104;15.432;2023-01-30T05:45:34;14.63;;;9.07;;
16115;SDS011;8162;47.104;15.432;2023-01-30T05:48:35;13.10;;;8.87;;
16115;SDS011;8162;47.104;15.432;2023-01-30T05:51:36;18.60;;;10.10;;
16115;SDS011;8162;47.104;15.432;2023-01-30T05:54:37;14.97;;;9.70;;
16115;SDS011;8162;47.104;15.432;2023-01-30T05:57:37;18.63;;;10.03;;
16115;SDS011;8162;47.104;15.432;2023-01-30T06:00:38;15.17;;;9.30;;
16115;SDS011;8162;47.104;15.432;2023-01-30T06:03:39;31.20;;;16.23;;
16115;SDS011;8162;47.104;15.432;2023-01-30T06:06:40;38.50;;;17.60;;
16115;SDS011;8162;47.104;15.432;2023-01-30T06:09:41;22.23;;;12.43;;
16115;SDS011;8162;47.104;15.432;2023-01-30T06:12:41;21.93;;;13.07;;
16115;SDS011;8162;47.104;15.432;2023-01-30T06:15:42;13.90;;;9.20;;
16115;SDS011;8162;47.104;15.432;2023-01-30T06:18:43;10.67;;;7.63;;
16115;SDS011;8162;47.104;15.432;2023-01-30T06:21:47;14.53;;;8.87;;
16115;SDS011;8162;47.104;15.432;2023-01-30T06:24:47;13.27;;;8.70;;
16115;SDS011;8162;47.104;15.432;2023-01-30T06:27:48;14.43;;;9.00;;
16115;SDS011;8162;47.104;15.432;2023-01-30T06:30:49;12.83;;;7.90;;
16115;SDS011;8162;47.104;15.432;2023-01-30T06:33:50;12.87;;;8.13;;
16115;SDS011;8162;47.104;15.432;2023-01-30T06:36:51;13.57;;;7.97;;
16115;SDS011;8162;47.104;15.432;2023-01-30T06:39:51;12.73;;;8.20;;
16115;SDS011;8162;47.104;15.432;2023-01-30T06:42:52;14.97;;;8.00;;
16115;SDS011;8162;47.104;15.432;2023-01-30T06:45:53;11.43;;;8.20;;
16115;SDS011;8162;47.104;15.432;2023-01-30T06:48:53;12.30;;;8.03;;
16115;SDS011;8162;47.104;15.432;2023-01-30T06:51:54;13.67;;;8.50;;
16115;SDS011;8162;47.104;15.432;2023-01-30T06:54:55;10.13;;;6.53;;
16115;SDS011;8162;47.104;15.432;2023-01-30T06:58:03;10.17;;;7.10;;
16115;SDS011;8162;47.104;15.432;2023-01-30T07:01:13;10.07;;;6.33;;
16115;SDS011;8162;47.104;15.432;2023-01-30T07:04:14;8.27;;;5.93;;
16115;SDS011;8162;47.104;15.432;2023-01-30T07:07:15;8.17;;;6.30;;
16115;SDS011;8162;47.104;15.432;2023-01-30T07:10:15;8.30;;;6.00;;
16115;SDS011;8162;47.104;15.432;2023-01-30T07:13:16;10.47;;;6.97;;
16115;SDS011;8162;47.104;15.432;2023-01-30T07:16:17;9.60;;;6.17;;
16115;SDS011;8162;47.104;15.432;2023-01-30T07:19:18;10.37;;;6.60;;
16115;SDS011;8162;47.104;15.432;2023-01-30T07:22:18;8.10;;;5.53;;
16115;SDS011;8162;47.104;15.432;2023-01-30T07:25:20;8.30;;;6.07;;
16115;SDS011;8162;47.104;15.432;2023-01-30T07:28:21;8.90;;;5.27;;
16115;SDS011;8162;47.104;15.432;2023-01-30T07:31:22;8.07;;;5.47;;
16115;SDS011;8162;47.104;15.432;2023-01-30T07:34:23;10.80;;;6.60;;
16115;SDS011;8162;47.104;15.432;2023-01-30T07:37:23;7.30;;;5.60;;
16115;SDS011;8162;47.104;15.432;2023-01-30T07:40:24;6.93;;;5.17;;
16115;SDS011;8162;47.104;15.432;2023-01-30T07:43:26;7.93;;;5.53;;
16115;SDS011;8162;47.104;15.432;2023-01-30T07:46:26;8.97;;;5.30;;
16115;SDS011;8162;47.104;15.432;2023-01-30T07:49:33;6.97;;;4.77;;
16115;SDS011;8162;47.104;15.432;2023-01-30T07:52:34;5.80;;;4.40;;
16115;SDS011;8162;47.104;15.432;2023-01-30T07:55:35;6.03;;;4.67;;
16115;SDS011;8162;47.104;15.432;2023-01-30T07:58:35;7.90;;;5.73;;
16115;SDS011;8162;47.104;15.432;2023-01-30T08:01:36;7.47;;;4.43;;
16115;SDS011;8162;47.104;15.432;2023-01-30T08:04:37;7.90;;;5.30;;
16115;SDS011;8162;47.104;15.432;2023-01-30T08:07:38;6.43;;;4.40;;
16115;SDS011;8162;47.104;15.432;2023-01-30T08:10:39;4.60;;;4.00;;
16115;SDS011;8162;47.104;15.432;2023-01-30T08:13:39;7.43;;;4.37;;
16115;SDS011;8162;47.104;15.432;2023-01-30T08:16:40;6.07;;;4.47;;
16115;SDS011;8162;47.104;15.432;2023-01-30T08:19:41;5.60;;;4.57;;
16115;SDS011;8162;47.104;15.432;2023-01-30T08:22:42;7.77;;;5.43;;
16115;SDS011;8162;47.104;15.432;2023-01-30T08:25:42;7.73;;;5.33;;
16115;SDS011;8162;47.104;15.432;2023-01-30T08:28:43;7.57;;;6.00;;
16115;SDS011;8162;47.104;15.432;2023-01-30T08:31:43;8.00;;;5.47;;
16115;SDS011;8162;47.104;15.432;2023-01-30T08:34:44;5.40;;;4.43;;
16115;SDS011;8162;47.104;15.432;2023-01-30T08:37:45;6.67;;;4.40;;
16115;SDS011;8162;47.104;15.432;2023-01-30T08:40:45;9.57;;;5.63;;
16115;SDS011;8162;47.104;15.432;2023-01-30T08:43:46;7.30;;;5.63;;
16115;SDS011;8162;47.104;15.432;2023-01-30T08:46:47;7.07;;;5.37;;
16115;SDS011;8162;47.104;15.432;2023-01-30T08:49:48;5.77;;;4.93;;
16115;SDS011;8162;47.104;15.432;2023-01-30T08:52:50;8.17;;;5.57;;
16115;SDS011;8162;47.104;15.432;2023-01-30T08:55:51;8.93;;;5.63;;
16115;SDS011;8162;47.104;15.432;2023-01-30T08:58:53;10.50;;;6.53;;
16115;SDS011;8162;47.104;15.432;2023-01-30T09:01:53;8.13;;;6.20;;
16115;SDS011;8162;47.104;15.432;2023-01-30T09:04:54;9.30;;;6.63;;
16115;SDS011;8162;47.104;15.432;2023-01-30T09:07:55;10.77;;;7.20;;
16115;SDS011;8162;47.104;15.432;2023-01-30T09:10:59;11.93;;;8.63;;
16115;SDS011;8162;47.104;15.432;2023-01-30T09:14:03;14.97;;;8.93;;
16115;SDS011;8162;47.104;15.432;2023-01-30T09:17:04;9.63;;;7.10;;
16115;SDS011;8162;47.104;15.432;2023-01-30T09:20:05;10.93;;;7.40;;
16115;SDS011;8162;47.104;15.432;2023-01-30T09:23:07;9.90;;;7.03;;
16115;SDS011;8162;47.104;15.432;2023-01-30T09:26:07;11.03;;;8.10;;
16115;SDS011;8162;47.104;15.432;2023-01-30T09:29:08;11.33;;;7.20;;
16115;SDS011;8162;47.104;15.432;2023-01-30T09:32:10;11.60;;;8.10;;
16115;SDS011;8162;47.104;15.432;2023-01-30T09:35:10;6.83;;;6.07;;
16115;SDS011;8162;47.104;15.432;2023-01-30T09:38:11;9.63;;;7.13;;
16115;SDS011;8162;47.104;15.432;2023-01-30T09:54:24;7.93;;;5.53;;
16115;SDS011;8162;47.104;15.432;2023-01-30T09:57:30;8.00;;;5.80;;
16115;SDS011;8162;47.104;15.432;2023-01-30T10:00:35;8.40;;;6.77;;
16115;SDS011;8162;47.104;15.432;2023-01-30T10:03:39;8.27;;;6.40;;
16115;SDS011;8162;47.104;15.432;2023-01-30T10:07:01;9.03;;;5.50;;
16115;SDS011;8162;47.104;15.432;2023-01-30T10:10:15;7.90;;;5.67;;
16115;SDS011;8162;47.104;15.432;2023-01-30T10:27:14;9.13;;;6.13;;
16115;SDS011;8162;47.104;15.432;2023-01-30T10:30:16;7.27;;;5.00;;
16115;SDS011;8162;47.104;15.432;2023-01-30T10:33:18;9.43;;;6.50;;
16115;SDS011;8162;47.104;15.432;2023-01-30T10:36:44;9.20;;;5.50;;
16115;SDS011;8162;47.104;15.432;2023-01-30T10:40:06;7.13;;;5.00;;
16115;SDS011;8162;47.104;15.432;2023-01-30T10:43:33;8.40;;;6.57;;
16115;SDS011;8162;47.104;15.432;2023-01-30T10:49:54;18.60;;;10.33;;
16115;SDS011;8162;47.104;15.432;2023-01-30T10:56:21;17.30;;;12.43;;
16115;SDS011;8162;47.104;15.432;2023-01-30T10:59:49;17.83;;;13.40;;
16115;SDS011;8162;47.104;15.432;2023-01-30T11:03:38;15.23;;;11.53;;
16115;SDS011;8162;47.104;15.432;2023-01-30T11:06:29;21.37;;;13.97;;
16115;SDS011;8162;47.104;15.432;2023-01-30T11:09:45;22.93;;;14.20;;
16115;SDS011;8162;47.104;15.432;2023-01-30T11:12:51;22.20;;;12.43;;
16115;SDS011;8162;47.104;15.432;2023-01-30T11:15:55;16.03;;;13.07;;
16115;SDS011;8162;47.104;15.432;2023-01-30T11:19:07;16.37;;;11.33;;
16115;SDS011;8162;47.104;15.432;2023-01-30T11:22:10;15.83;;;10.63;;
16115;SDS011;8162;47.104;15.432;2023-01-30T11:25:15;20.80;;;11.73;;
16115;SDS011;8162;47.104;15.432;2023-01-30T11:28:17;19.63;;;12.60;;
16115;SDS011;8162;47.104;15.432;2023-01-30T11:31:19;15.60;;;10.57;;
16115;SDS011;8162;47.104;15.432;2023-01-30T11:34:24;16.80;;;10.57;;
16115;SDS011;8162;47.104;15.432;2023-01-30T11:37:31;15.20;;;10.33;;
16115;SDS011;8162;47.104;15.432;2023-01-30T11:40:33;17.90;;;10.73;;
16115;SDS011;8162;47.104;15.432;2023-01-30T11:43:38;16.43;;;9.90;;
16115;SDS011;8162;47.104;15.432;2023-01-30T11:46:39;10.27;;;8.37;;
16115;SDS011;8162;47.104;15.432;2023-01-30T11:49:42;14.13;;;9.73;;
16115;SDS011;8162;47.104;15.432;2023-01-30T11:52:47;13.23;;;9.90;;
16115;SDS011;8162;47.104;15.432;2023-01-30T11:55:49;14.87;;;8.93;;
16115;SDS011;8162;47.104;15.432;2023-01-30T11:59:00;17.90;;;10.97;;
16115;SDS011;8162;47.104;15.432;2023-01-30T12:02:24;20.00;;;10.13;;
16115;SDS011;8162;47.104;15.432;2023-01-30T12:05:33;15.03;;;10.27;;
16115;SDS011;8162;47.104;15.432;2023-01-30T12:08:41;13.93;;;9.87;;
16115;SDS011;8162;47.104;15.432;2023-01-30T12:11:43;17.20;;;9.80;;
16115;SDS011;8162;47.104;15.432;2023-01-30T12:14:44;14.30;;;10.17;;
16115;SDS011;8162;47.104;15.432;2023-01-30T12:17:54;16.93;;;10.43;;
16115;SDS011;8162;47.104;15.432;2023-01-30T12:24:42;14.13;;;8.37;;
16115;SDS011;8162;47.104;15.432;2023-01-30T12:27:54;10.40;;;7.53;;
16115;SDS011;8162;47.104;15.432;2023-01-30T12:31:09;10.67;;;7.83;;
16115;SDS011;8162;47.104;15.432;2023-01-30T12:34:15;11.23;;;7.23;;
16115;SDS011;8162;47.104;15.432;2023-01-30T12:47:32;11.77;;;7.33;;
16115;SDS011;8162;47.104;15.432;2023-01-30T13:00:58;10.33;;;7.57;;
16115;SDS011;8162;47.104;15.432;2023-01-30T13:07:45;10.07;;;6.63;;
16115;SDS011;8162;47.104;15.432;2023-01-30T13:20:34;12.13;;;7.40;;
16115;SDS011;8162;47.104;15.432;2023-01-30T13:27:18;12.20;;;7.10;;
16115;SDS011;8162;47.104;15.432;2023-01-30T13:30:21;9.07;;;6.80;;
16115;SDS011;8162;47.104;15.432;2023-01-30T13:33:25;8.63;;;6.73;;
16115;SDS011;8162;47.104;15.432;2023-01-30T13:43:03;8.03;;;7.03;;
16115;SDS011;8162;47.104;15.432;2023-01-30T13:46:12;8.60;;;6.43;;
16115;SDS011;8162;47.104;15.432;2023-01-30T13:49:24;10.30;;;7.23;;
16115;SDS011;8162;47.104;15.432;2023-01-30T13:52:38;14.50;;;7.37;;
16115;SDS011;8162;47.104;15.432;2023-01-30T13:55:50;8.83;;;6.30;;
16115;SDS011;8162;47.104;15.432;2023-01-30T13:59:13;8.50;;;7.13;;
16115;SDS011;8162;47.104;15.432;2023-01-30T14:02:34;8.27;;;6.17;;
16115;SDS011;8162;47.104;15.432;2023-01-30T14:08:52;10.53;;;6.80;;
16115;SDS011;8162;47.104;15.432;2023-01-30T14:11:59;8.90;;;6.53;;
16115;SDS011;8162;47.104;15.432;2023-01-30T14:15:17;9.83;;;6.93;;
16115;SDS011;8162;47.104;15.432;2023-01-30T14:18:23;6.70;;;5.90;;
16115;SDS011;8162;47.104;15.432;2023-01-30T14:21:30;10.80;;;7.23;;
16115;SDS011;8162;47.104;15.432;2023-01-30T14:24:31;8.90;;;6.47;;
16115;SDS011;8162;47.104;15.432;2023-01-30T14:27:32;11.33;;;7.67;;
16115;SDS011;8162;47.104;15.432;2023-01-30T14:30:46;9.47;;;6.63;;
16115;SDS011;8162;47.104;15.432;2023-01-30T14:33:48;13.60;;;7.57;;
16115;SDS011;8162;47.104;15.432;2023-01-30T14:36:50;8.33;;;6.50;;
16115;SDS011;8162;47.104;15.432;2023-01-30T14:39:53;9.60;;;6.60;;
16115;SDS011;8162;47.104;15.432;2023-01-30T14:49:25;7.23;;;5.97;;
16115;SDS011;8162;47.104;15.432;2023-01-30T14:52:35;7.37;;;5.17;;
16115;SDS011;8162;47.104;15.432;2023-01-30T14:55:39;8.83;;;6.50;;
16115;SDS011;8162;47.104;15.432;2023-01-30T14:58:48;9.07;;;5.77;;
16115;SDS011;8162;47.104;15.432;2023-01-30T15:05:14;8.27;;;5.67;;
16115;SDS011;8162;47.104;15.432;2023-01-30T15:08:21;7.07;;;5.10;;
16115;SDS011;8162;47.104;15.432;2023-01-30T15:11:26;7.13;;;4.60;;
16115;SDS011;8162;47.104;15.432;2023-01-30T15:14:39;6.30;;;4.97;;
16115;SDS011;8162;47.104;15.432;2023-01-30T15:21:18;5.73;;;4.77;;
16115;SDS011;8162;47.104;15.432;2023-01-30T15:28:35;6.60;;;5.80;;
16115;SDS011;8162;47.104;15.432;2023-01-30T15:31:53;5.77;;;4.70;;
16115;SDS011;8162;47.104;15.432;2023-01-30T15:37:58;7.40;;;5.10;;
16115;SDS011;8162;47.104;15.432;2023-01-30T15:41:03;7.13;;;5.57;;
16115;SDS011;8162;47.104;15.432;2023-01-30T15:51:00;6.50;;;5.53;;
16115;SDS011;8162;47.104;15.432;2023-01-30T15:54:07;6.60;;;5.87;;
16115;SDS011;8162;47.104;15.432;2023-01-30T15:57:12;8.53;;;5.40;;
16115;SDS011;8162;47.104;15.432;2023-01-30T16:00:29;7.60;;;5.10;;
16115;SDS011;8162;47.104;15.432;2023-01-30T16:03:36;7.10;;;4.90;;
16115;SDS011;8162;47.104;15.432;2023-01-30T16:06:39;8.87;;;5.93;;
16115;SDS011;8162;47.104;15.432;2023-01-30T16:09:40;8.43;;;5.57;;
16115;SDS011;8162;47.104;15.432;2023-01-30T16:12:41;7.50;;;5.20;;
16115;SDS011;8162;47.104;15.432;2023-01-30T16:19:15;9.53;;;6.53;;
16115;SDS011;8162;47.104;15.432;2023-01-30T16:22:26;9.43;;;6.40;;
16115;SDS011;8162;47.104;15.432;2023-01-30T16:25:33;8.83;;;6.03;;
16115;SDS011;8162;47.104;15.432;2023-01-30T16:28:34;8.70;;;7.30;;
16115;SDS011;8162;47.104;15.432;2023-01-30T16:31:38;13.37;;;9.07;;
16115;SDS011;8162;47.104;15.432;2023-01-30T16:34:40;12.57;;;8.77;;
16115;SDS011;8162;47.104;15.432;2023-01-30T16:37:41;11.80;;;8.90;;
16115;SDS011;8162;47.104;15.432;2023-01-30T16:40:42;16.93;;;11.43;;
16115;SDS011;8162;47.104;15.432;2023-01-30T16:43:44;13.53;;;9.73;;
16115;SDS011;8162;47.104;15.432;2023-01-30T16:50:21;13.70;;;9.20;;
16115;SDS011;8162;47.104;15.432;2023-01-30T16:53:22;11.93;;;7.97;;
16115;SDS011;8162;47.104;15.432;2023-01-30T16:56:24;9.87;;;8.13;;
16115;SDS011;8162;47.104;15.432;2023-01-30T16:59:30;11.50;;;9.17;;
16115;SDS011;8162;47.104;15.432;2023-01-30T17:02:47;15.67;;;11.50;;
16115;SDS011;8162;47.104;15.432;2023-01-30T17:05:57;12.73;;;9.47;;
16115;SDS011;8162;47.104;15.432;2023-01-30T17:08:58;16.93;;;12.13;;
16115;SDS011;8162;47.104;15.432;2023-01-30T17:12:30;17.77;;;12.70;;
16115;SDS011;8162;47.104;15.432;2023-01-30T17:15:25;12.30;;;9.20;;
16115;SDS011;8162;47.104;15.432;2023-01-30T17:18:29;13.23;;;9.07;;
16115;SDS011;8162;47.104;15.432;2023-01-30T17:21:31;16.10;;;8.33;;
16115;SDS011;8162;47.104;15.432;2023-01-30T17:25:04;13.97;;;8.27;;
16115;SDS011;8162;47.104;15.432;2023-01-30T17:28:17;12.57;;;8.73;;
16115;SDS011;8162;47.104;15.432;2023-01-30T17:31:20;11.43;;;8.97;;
16115;SDS011;8162;47.104;15.432;2023-01-30T17:34:21;12.43;;;8.83;;
16115;SDS011;8162;47.104;15.432;2023-01-30T17:37:23;12.07;;;9.00;;
16115;SDS011;8162;47.104;15.432;2023-01-30T17:40:26;11.93;;;9.17;;
16115;SDS011;8162;47.104;15.432;2023-01-30T17:43:33;13.67;;;9.67;;
16115;SDS011;8162;47.104;15.432;2023-01-30T17:46:36;9.97;;;5.67;;
16115;SDS011;8162;47.104;15.432;2023-01-30T17:49:42;5.30;;;3.43;;
16115;SDS011;8162;47.104;15.432;2023-01-30T17:52:43;4.77;;;2.87;;
16115;SDS011;8162;47.104;15.432;2023-01-30T17:55:45;2.67;;;2.27;;
16115;SDS011;8162;47.104;15.432;2023-01-30T17:58:48;1.90;;;1.63;;
16115;SDS011;8162;47.104;15.432;2023-01-30T18:01:52;2.33;;;0.90;;
16115;SDS011;8162;47.104;15.432;2023-01-30T18:04:54;0.73;;;0.67;;
16115;SDS011;8162;47.104;15.432;2023-01-30T18:07:55;1.20;;;0.90;;
16115;SDS011;8162;47.104;15.432;2023-01-30T18:10:55;0.70;;;0.70;;
16115;SDS011;8162;47.104;15.432;2023-01-30T18:13:56;0.70;;;0.70;;
16115;SDS011;8162;47.104;15.432;2023-01-30T18:16:58;1.10;;;1.00;;
16115;SDS011;8162;47.104;15.432;2023-01-30T18:20:00;0.80;;;0.73;;
16115;SDS011;8162;47.104;15.432;2023-01-30T18:23:02;0.87;;;0.80;;
16115;SDS011;8162;47.104;15.432;2023-01-30T18:26:03;0.93;;;0.83;;
16115;SDS011;8162;47.104;15.432;2023-01-30T18:29:05;0.70;;;0.60;;
16115;SDS011;8162;47.104;15.432;2023-01-30T18:32:06;0.77;;;0.77;;
16115;SDS011;8162;47.104;15.432;2023-01-30T18:35:07;1.67;;;1.10;;
16115;SDS011;8162;47.104;15.432;2023-01-30T18:38:09;1.07;;;0.97;;
16115;SDS011;8162;47.104;15.432;2023-01-30T18:41:11;1.07;;;0.93;;
16115;SDS011;8162;47.104;15.432;2023-01-30T18:44:17;1.10;;;0.80;;
16115;SDS011;8162;47.104;15.432;2023-01-30T18:47:18;0.60;;;0.60;;
16115;SDS011;8162;47.104;15.432;2023-01-30T18:50:19;1.03;;;0.87;;
16115;SDS011;8162;47.104;15.432;2023-01-30T18:53:20;2.17;;;0.80;;
16115;SDS011;8162;47.104;15.432;2023-01-30T18:56:22;1.33;;;0.87;;
16115;SDS011;8162;47.104;15.432;2023-01-30T18:59:28;1.57;;;1.10;;
16115;SDS011;8162;47.104;15.432;2023-01-30T19:02:29;1.83;;;1.60;;
16115;SDS011;8162;47.104;15.432;2023-01-30T19:05:34;1.87;;;1.47;;
16115;SDS011;8162;47.104;15.432;2023-01-30T19:08:35;1.10;;;1.00;;
16115;SDS011;8162;47.104;15.432;2023-01-30T19:11:36;1.03;;;0.90;;
16115;SDS011;8162;47.104;15.432;2023-01-30T19:15:13;2.83;;;1.60;;
16115;SDS011;8162;47.104;15.432;2023-01-30T19:18:17;1.10;;;1.00;;
16115;SDS011;8162;47.104;15.432;2023-01-30T19:21:18;1.07;;;0.90;;
16115;SDS011;8162;47.104;15.432;2023-01-30T19:24:19;0.70;;;0.70;;
16115;SDS011;8162;47.104;15.432;2023-01-30T19:27:24;0.80;;;0.60;;
16115;SDS011;8162;47.104;15.432;2023-01-30T19:30:25;0.97;;;0.83;;
16115;SDS011;8162;47.104;15.432;2023-01-30T19:33:26;0.80;;;0.70;;
16115;SDS011;8162;47.104;15.432;2023-01-30T19:36:28;1.87;;;0.83;;
16115;SDS011;8162;47.104;15.432;2023-01-30T19:39:50;1.33;;;1.00;;
16115;SDS011;8162;47.104;15.432;2023-01-30T19:42:52;1.53;;;1.10;;
16115;SDS011;8162;47.104;15.432;2023-01-30T19:45:57;1.27;;;1.17;;
16115;SDS011;8162;47.104;15.432;2023-01-30T19:48:59;1.70;;;1.10;;
16115;SDS011;8162;47.104;15.432;2023-01-30T19:52:02;1.37;;;1.10;;
16115;SDS011;8162;47.104;15.432;2023-01-30T19:55:03;1.37;;;0.80;;
16115;SDS011;8162;47.104;15.432;2023-01-30T19:58:05;0.70;;;0.70;;
16115;SDS011;8162;47.104;15.432;2023-01-30T20:01:07;0.60;;;0.60;;
16115;SDS011;8162;47.104;15.432;2023-01-30T20:04:13;0.50;;;0.50;;
16115;SDS011;8162;47.104;15.432;2023-01-30T20:07:14;1.30;;;0.50;;
16115;SDS011;8162;47.104;15.432;2023-01-30T20:10:15;0.70;;;0.70;;
16115;SDS011;8162;47.104;15.432;2023-01-30T20:13:16;0.80;;;0.80;;
16115;SDS011;8162;47.104;15.432;2023-01-30T20:16:21;0.57;;;0.57;;
16115;SDS011;8162;47.104;15.432;2023-01-30T20:19:25;2.17;;;0.77;;
16115;SDS011;8162;47.104;15.432;2023-01-30T20:22:26;1.77;;;0.80;;
16115;SDS011;8162;47.104;15.432;2023-01-30T20:25:29;1.03;;;0.90;;
16115;SDS011;8162;47.104;15.432;2023-01-30T20:28:34;0.50;;;0.50;;
16115;SDS011;8162;47.104;15.432;2023-01-30T20:31:36;0.50;;;0.50;;
16115;SDS011;8162;47.104;15.432;2023-01-30T20:34:38;1.00;;;0.80;;
16115;SDS011;8162;47.104;15.432;2023-01-30T20:37:39;1.00;;;0.60;;